Time;durP1;ratioP1;P1;durP2;ratioP2;P2;SDS_P1;SDS_P2;PMS_P1;PMS_P2;Temp;Humidity;BMP_temperature;BMP_pressure;BME280_temperature;BME280_humidity;BME280_pressure;Samples;Min_cycle;Max_cycle;Signal;HPM_P1;HPM_P2
2020/12/01 00:00:37;;;;;;;73.90;28.20;;;;;;;-1.05;81.05;99249.23;3598880;82;21021;-77
2020/12/01 00:05:39;;;;;;;64.97;26.33;;;;;;;-1.10;81.29;99251.16;3599074;82;21493;-77
2020/12/01 00:10:41;;;;;;;56.07;23.30;;;;;;;-1.17;81.20;99246.92;3597229;82;21037;-78
2020/12/01 00:15:46;;;;;;;54.83;24.43;;;;;;;-1.25;81.20;99245.27;3595448;81;21025;-78
2020/12/01 00:20:48;;;;;;;49.13;21.23;;;;;;;-1.33;81.20;99244.97;3592936;82;21073;-78
2020/12/01 00:25:50;;;;;;;65.80;27.37;;;;;;;-1.45;81.18;99240.78;3599369;82;20997;-78
2020/12/01 00:30:52;;;;;;;72.67;27.93;;;;;;;-1.50;81.54;99233.19;3599927;82;21037;-78
2020/12/01 00:35:54;;;;;;;61.97;27.33;;;;;;;-1.50;81.71;99220.84;3599112;82;21493;-78
2020/12/01 00:40:57;;;;;;;61.13;26.40;;;;;;;-1.49;81.86;99222.98;3599647;82;21005;-78
2020/12/01 00:46:00;;;;;;;61.73;24.57;;;;;;;-1.49;81.83;99218.53;3598759;81;21081;-78
2020/12/01 00:51:03;;;;;;;62.80;26.03;;;;;;;-1.53;81.58;99221.25;3614950;82;21527;-78
2020/12/01 00:56:05;;;;;;;56.33;24.10;;;;;;;-1.58;81.61;99213.14;3599202;82;21028;-77
2020/12/01 01:01:08;;;;;;;57.33;22.87;;;;;;;-1.64;81.43;99204.23;3599252;82;21493;-77
2020/12/01 01:06:12;;;;;;;54.83;23.73;;;;;;;-1.74;81.24;99205.12;3598965;81;20977;-77
2020/12/01 01:11:14;;;;;;;58.30;23.83;;;;;;;-1.82;81.26;99203.98;3597429;82;21065;-77
2020/12/01 01:16:15;;;;;;;62.07;26.97;;;;;;;-1.83;81.66;99193.99;3589761;82;21355;-76
2020/12/01 01:21:18;;;;;;;53.57;24.17;;;;;;;-1.78;81.78;99196.02;3564644;82;21048;-76
2020/12/01 01:26:21;;;;;;;60.77;23.97;;;;;;;-1.82;81.66;99185.11;3564767;82;20988;-78
2020/12/01 01:31:22;;;;;;;60.57;23.93;;;;;;;-1.83;81.65;99181.34;3599057;82;20997;-78
2020/12/01 01:36:25;;;;;;;52.97;22.60;;;;;;;-1.87;81.69;99170.44;3598837;82;21021;-77
2020/12/01 01:41:34;;;;;;;54.10;21.57;;;;;;;-1.88;81.60;99176.69;3598716;82;21029;-77
2020/12/01 01:46:40;;;;;;;46.90;21.33;;;;;;;-1.92;81.49;99172.36;3598843;81;21033;-77
2020/12/01 01:51:49;;;;;;;51.00;20.27;;;;;;;-1.97;81.44;99163.42;3598723;82;21005;-77
2020/12/01 01:56:55;;;;;;;46.77;21.00;;;;;;;-1.96;81.77;99167.19;3598913;82;21001;-78
2020/12/01 02:01:59;;;;;;;45.20;19.00;;;;;;;-1.99;81.67;99164.94;3568004;82;21036;-77
2020/12/01 02:07:05;;;;;;;47.70;19.97;;;;;;;-1.99;81.78;99166.24;3598707;82;21009;-78
2020/12/01 02:12:07;;;;;;;39.70;19.00;;;;;;;-1.99;81.82;99163.62;3596288;82;21073;-77
2020/12/01 02:17:31;;;;;;;38.43;18.20;;;;;;;-2.05;81.52;99164.42;3593864;81;21036;-78
2020/12/01 02:22:33;;;;;;;39.60;17.77;;;;;;;-2.08;81.51;99159.05;3596431;82;21068;-77
2020/12/01 02:27:35;;;;;;;40.43;18.13;;;;;;;-2.10;81.69;99156.31;3598896;82;21053;-77
2020/12/01 02:32:38;;;;;;;38.13;18.17;;;;;;;-2.14;81.50;99159.84;3598721;82;21433;-77
2020/12/01 02:37:43;;;;;;;37.03;15.83;;;;;;;-2.17;81.50;99151.06;3598787;82;21013;-77
2020/12/01 02:42:51;;;;;;;42.20;16.60;;;;;;;-2.22;81.53;99146.89;3598930;82;21037;-77
2020/12/01 02:47:52;;;;;;;39.33;15.87;;;;;;;-2.24;81.62;99139.22;3598084;81;21040;-78
2020/12/01 02:52:54;;;;;;;33.33;15.43;;;;;;;-2.26;81.54;99141.72;3598716;82;21060;-77
2020/12/01 02:57:57;;;;;;;34.37;15.70;;;;;;;-2.25;81.84;99138.90;3598650;82;21037;-77
2020/12/01 03:03:00;;;;;;;34.73;16.17;;;;;;;-2.28;81.67;99128.80;3598740;82;21061;-77
2020/12/01 03:08:02;;;;;;;33.13;15.50;;;;;;;-2.31;81.48;99129.67;3598711;82;21013;-77
2020/12/01 03:13:04;;;;;;;30.43;14.47;;;;;;;-2.33;81.69;99129.88;3595869;82;21540;-77
2020/12/01 03:18:06;;;;;;;30.73;14.00;;;;;;;-2.32;81.57;99122.32;3567417;82;21339;-77
2020/12/01 03:23:08;;;;;;;31.03;15.90;;;;;;;-2.34;81.68;99119.06;3588320;82;21044;-77
2020/12/01 03:28:10;;;;;;;30.57;14.63;;;;;;;-2.30;81.76;99126.86;3598653;82;21041;-77
2020/12/01 03:33:12;;;;;;;34.27;15.83;;;;;;;-2.28;81.78;99122.23;3598634;82;21021;-77
2020/12/01 03:38:16;;;;;;;29.00;15.40;;;;;;;-2.31;81.73;99118.70;3598572;82;21037;-78
2020/12/01 03:43:18;;;;;;;33.47;14.30;;;;;;;-2.28;81.81;99114.84;3598921;82;22101;-77
2020/12/01 03:48:20;;;;;;;34.70;15.63;;;;;;;-2.30;81.65;99114.25;3598858;81;21037;-77
2020/12/01 03:53:22;;;;;;;36.43;16.20;;;;;;;-2.35;81.53;99106.97;3598611;82;21117;-77
2020/12/01 03:58:25;;;;;;;37.93;16.57;;;;;;;-2.41;81.46;99107.25;3598476;82;21061;-77
2020/12/01 04:03:27;;;;;;;36.80;17.00;;;;;;;-2.44;81.33;99110.76;3598552;82;21001;-77
2020/12/01 04:08:29;;;;;;;38.03;17.77;;;;;;;-2.50;81.40;99108.41;3598542;82;21037;-77
2020/12/01 04:13:32;;;;;;;40.73;17.60;;;;;;;-2.51;81.39;99107.30;3588905;82;21004;-78
2020/12/01 04:18:34;;;;;;;36.57;17.20;;;;;;;-2.54;81.64;99093.27;3554253;82;21056;-77
2020/12/01 04:23:36;;;;;;;40.53;17.30;;;;;;;-2.50;81.83;99091.88;3584478;82;21004;-77
2020/12/01 04:28:38;;;;;;;43.33;18.40;;;;;;;-2.54;81.49;99079.64;3588806;82;20972;-78
2020/12/01 04:33:41;;;;;;;45.67;18.93;;;;;;;-2.58;81.33;99087.59;3588673;82;21088;-77
2020/12/01 04:38:44;;;;;;;36.53;17.53;;;;;;;-2.62;81.39;99083.22;3588832;82;21039;-78
2020/12/01 04:43:53;;;;;;;35.63;16.73;;;;;;;-2.66;81.40;99077.25;3588915;82;21020;-78
2020/12/01 04:49:06;;;;;;;43.70;19.30;;;;;;;-2.68;81.33;99077.45;3588884;81;21008;-78
2020/12/01 04:54:51;;;;;;;41.87;19.30;;;;;;;-2.70;81.49;99070.78;3588860;82;21513;-77
2020/12/01 05:00:14;;;;;;;46.37;18.67;;;;;;;-2.69;81.61;99058.78;3545221;82;21044;-77
2020/12/01 05:05:40;;;;;;;43.60;19.03;;;;;;;-2.72;81.49;99066.24;3589012;82;21039;-76
2020/12/01 05:10:42;;;;;;;38.80;18.33;;;;;;;-2.76;81.48;99063.19;3597597;82;21413;-76
2020/12/01 05:15:49;;;;;;;41.13;18.97;;;;;;;-2.78;81.58;99059.45;3596301;82;20982;-77
2020/12/01 05:21:03;;;;;;;43.83;18.93;;;;;;;-2.77;81.52;99057.14;3599351;82;20995;-76
2020/12/01 05:26:10;;;;;;;44.00;20.20;;;;;;;-2.75;81.53;99055.13;3589191;81;21052;-76
2020/12/01 05:31:13;;;;;;;38.47;17.50;;;;;;;-2.75;81.42;99058.26;3587643;82;21017;-76
2020/12/01 05:36:21;;;;;;;39.43;17.17;;;;;;;-2.80;81.24;99051.47;3590216;82;21031;-79
2020/12/01 05:41:28;;;;;;;32.03;14.43;;;;;;;-2.79;81.29;99043.41;3589918;82;21035;-78
2020/12/01 05:46:53;;;;;;;33.40;14.67;;;;;;;-2.79;81.26;99047.34;3589916;81;21479;-78
2020/12/01 05:52:04;;;;;;;23.10;10.70;;;;;;;-2.78;81.12;99044.23;3589092;82;21039;-76
2020/12/01 05:57:26;;;;;;;22.20;10.60;;;;;;;-2.75;81.16;99039.91;3595997;82;21036;-77
2020/12/01 06:02:47;;;;;;;27.03;11.27;;;;;;;-2.72;81.01;99043.44;3600604;82;21016;-77
2020/12/01 06:07:52;;;;;;;23.23;11.30;;;;;;;-2.70;80.90;99048.00;3600303;82;21282;-78
2020/12/01 06:13:19;;;;;;;19.90;9.57;;;;;;;-2.66;80.94;99049.23;3587194;82;21052;-77
2020/12/01 06:18:51;;;;;;;21.33;10.33;;;;;;;-2.59;80.92;99047.44;3587527;82;21012;-77
2020/12/01 06:24:21;;;;;;;22.07;10.43;;;;;;;-2.53;80.85;99043.70;3547882;81;21313;-78
2020/12/01 06:29:55;;;;;;;24.73;10.93;;;;;;;-2.47;80.75;99054.75;3588490;82;21479;-77
2020/12/01 06:35:30;;;;;;;21.47;11.50;;;;;;;-2.45;80.46;99050.09;3588533;82;21038;-77
2020/12/01 06:40:40;;;;;;;26.53;11.57;;;;;;;-2.44;80.37;99046.48;3588271;81;21473;-77
2020/12/01 06:45:54;;;;;;;22.20;10.70;;;;;;;-2.41;80.47;99057.40;3588309;82;21041;-77
2020/12/01 06:51:00;;;;;;;23.83;10.27;;;;;;;-2.30;80.61;99063.87;3590014;81;20980;-78
2020/12/01 06:56:14;;;;;;;24.43;11.43;;;;;;;-2.19;80.42;99066.44;3590185;81;21072;-78
2020/12/01 07:01:24;;;;;;;23.67;10.73;;;;;;;-2.14;80.14;99060.09;3544195;82;21004;-77
2020/12/01 07:06:30;;;;;;;;;;;;;;;-2.05;79.99;99049.41;3570570;81;21010;-77
2020/12/01 07:11:54;;;;;;;24.93;11.77;;;;;;;-1.98;79.95;99048.41;3593827;81;20191;-78
2020/12/01 07:16:56;;;;;;;24.77;11.67;;;;;;;-1.91;79.83;99050.53;3605043;81;21048;-78
2020/12/01 07:22:27;;;;;;;27.90;11.30;;;;;;;-1.77;79.84;99055.81;3569348;81;21029;-78
2020/12/01 07:27:52;;;;;;;23.23;11.37;;;;;;;-1.65;79.66;99066.52;3594103;81;21026;-78
2020/12/01 07:33:05;;;;;;;25.00;11.73;;;;;;;-1.51;79.57;99066.84;3595121;81;21041;-79
2020/12/01 07:38:37;;;;;;;26.73;11.40;;;;;;;-1.38;79.36;99064.71;3598669;81;21068;-79
2020/12/01 07:43:40;;;;;;;26.00;12.10;;;;;;;-1.16;79.75;99067.10;3545232;81;21060;-76
2020/12/01 07:48:42;;;;;;;25.17;13.00;;;;;;;-0.23;80.30;99070.75;3550850;82;21115;-77
2020/12/01 07:53:44;;;;;;;28.07;11.97;;;;;;;-0.07;78.76;99074.74;3584186;82;21077;-79
2020/12/01 07:59:09;;;;;;;23.50;11.37;;;;;;;-0.02;78.32;99074.09;3572389;81;21064;-77
2020/12/01 08:04:19;;;;;;;25.60;11.77;;;;;;;-0.01;78.04;99074.41;3554957;82;21029;-78
2020/12/01 08:09:24;;;;;;;25.30;12.67;;;;;;;-0.02;77.80;99072.78;3553008;81;38349;-79
2020/12/01 08:14:26;;;;;;;30.10;14.20;;;;;;;0.01;77.61;99078.14;3576265;81;21028;-79
2020/12/01 08:19:31;;;;;;;27.37;13.67;;;;;;;0.08;77.57;99090.23;3552436;81;21044;-78
2020/12/01 08:24:42;;;;;;;31.10;13.67;;;;;;;0.16;77.47;99088.67;3562015;81;21072;-79
2020/12/01 08:29:45;;;;;;;26.12;13.75;;;;;;;0.39;77.47;99087.30;3561569;81;21050;-80
2020/12/01 08:35:06;;;;;;;31.73;15.20;;;;;;;1.11;79.83;99085.58;3583418;81;21057;-81
2020/12/01 08:40:23;;;;;;;35.00;15.87;;;;;;;1.96;77.76;99088.45;3587718;81;21074;-80
2020/12/01 08:45:37;;;;;;;32.13;15.33;;;;;;;1.90;75.96;99090.67;3589869;81;21041;-80
2020/12/01 08:50:41;;;;;;;29.23;13.70;;;;;;;1.73;75.44;99095.24;3591542;81;20989;-79
2020/12/01 08:55:52;;;;;;;30.17;15.63;;;;;;;1.93;75.76;99092.36;3581993;82;21068;-80
2020/12/01 09:01:06;;;;;;;33.30;15.57;;;;;;;1.83;74.69;99091.58;3586684;81;20935;-80
2020/12/01 09:06:29;;;;;;;25.93;13.40;;;;;;;1.73;74.56;99097.09;3588795;81;21049;-78
2020/12/01 09:22:10;;;;;;;29.07;14.17;;;;;;;1.69;74.33;99086.97;3809227;76;21008;-79
2020/12/01 09:27:16;;;;;;;29.53;14.80;;;;;;;1.74;74.06;99083.66;3797991;77;21258;-78
2020/12/01 09:32:23;;;;;;;34.17;14.67;;;;;;;1.81;74.22;99092.83;3803529;77;20968;-79
2020/12/01 09:37:25;;;;;;;30.37;13.80;;;;;;;1.85;73.89;99093.47;3693794;78;21320;-79
2020/12/01 09:42:31;;;;;;;28.53;12.83;;;;;;;1.96;73.88;99088.45;3734035;79;21447;-79
2020/12/01 09:53:30;;;;;;;22.63;11.47;;;;;;;2.12;72.40;99084.38;3817230;76;21050;-79
2020/12/01 09:57:53;;;;;;;23.70;12.33;;;;;;;2.12;73.04;99078.56;3771624;77;20960;-79
2020/12/01 10:03:24;;;;;;;20.43;9.43;;;;;;;2.17;72.49;99074.74;3797362;76;21456;-79
2020/12/01 10:08:18;;;;;;;19.82;10.40;;;;;;;2.23;72.34;99071.19;3801650;77;21315;-79
2020/12/01 10:13:34;;;;;;;18.67;10.77;;;;;;;2.35;72.30;99063.80;3814588;76;21056;-77
2020/12/01 10:39:09;;;;;;;17.67;8.33;;;;;;;2.89;71.14;99055.80;3708931;78;20141;-78
2020/12/01 10:44:11;;;;;;;19.63;9.17;;;;;;;2.78;69.99;99029.62;3666610;79;21044;-77
2020/12/01 10:49:14;;;;;;;20.20;9.80;;;;;;;2.81;68.83;99055.64;3667648;79;21054;-77
2020/12/01 10:54:18;;;;;;;16.07;8.73;;;;;;;2.63;66.53;99049.94;3697889;78;21040;-77
2020/12/01 10:59:23;;;;;;;14.17;8.07;;;;;;;2.75;69.29;99040.67;3664700;79;21036;-77
2020/12/01 11:04:25;;;;;;;16.43;8.37;;;;;;;2.75;69.29;99040.67;3727388;78;21036;-75
2020/12/01 11:09:28;;;;;;;16.37;9.63;;;;;;;2.99;69.11;99051.25;3705735;78;20997;-77
2020/12/01 11:14:30;;;;;;;13.50;7.63;;;;;;;3.13;69.22;99052.60;3684189;78;21340;-77
2020/12/01 11:19:32;;;;;;;17.20;9.97;;;;;;;3.13;68.04;99048.63;3669170;78;21040;-77
2020/12/01 11:24:35;;;;;;;19.93;9.30;;;;;;;3.18;68.21;99050.08;3679337;78;21063;-77
2020/12/01 11:29:37;;;;;;;15.40;8.70;;;;;;;3.21;67.41;99048.27;3741176;78;21012;-76
2020/12/01 11:34:39;;;;;;;13.67;7.73;;;;;;;3.17;67.79;99030.45;3740708;78;20956;-75
2020/12/01 11:39:41;;;;;;;13.13;7.30;;;;;;;3.33;67.52;99047.45;3737860;78;21031;-76
2020/12/01 11:44:42;;;;;;;13.40;7.50;;;;;;;3.33;67.17;99048.77;3737682;78;20975;-76
2020/12/01 11:49:44;;;;;;;14.87;8.70;;;;;;;3.21;65.53;99046.95;3738418;78;21485;-76
2020/12/01 11:54:46;;;;;;;17.87;9.93;;;;;;;3.24;66.48;99043.83;3744145;78;21008;-77
2020/12/01 11:59:48;;;;;;;16.30;8.13;;;;;;;3.33;66.79;99046.13;3722296;78;21553;-76
2020/12/01 12:04:50;;;;;;;17.40;9.40;;;;;;;3.38;66.71;99051.00;3730159;78;20903;-78
2020/12/01 12:09:52;;;;;;;21.13;10.07;;;;;;;3.43;66.60;99046.34;3733588;78;21281;-76
2020/12/01 12:14:54;;;;;;;12.57;7.77;;;;;;;3.46;66.62;99050.38;3716165;79;21603;-76
2020/12/01 12:19:57;;;;;;;15.03;8.67;;;;;;;3.49;66.66;99037.45;3712982;79;20957;-76
2020/12/01 12:24:59;;;;;;;17.90;9.77;;;;;;;3.47;66.29;99039.55;3690144;80;20984;-77
2020/12/01 12:30:01;;;;;;;16.57;9.53;;;;;;;3.52;66.32;99033.00;3687758;78;20988;-76
2020/12/01 12:35:04;;;;;;;14.60;7.47;;;;;;;3.57;66.25;99034.43;3686745;78;21043;-77
2020/12/01 12:40:07;;;;;;;14.83;8.67;;;;;;;3.60;65.91;99031.30;3677993;78;21004;-77
2020/12/01 12:45:11;;;;;;;15.70;9.27;;;;;;;3.58;66.15;99032.07;3730674;78;21033;-77
2020/12/01 12:50:14;;;;;;;16.43;8.87;;;;;;;3.53;66.18;99029.84;3729368;79;20992;-77
2020/12/01 12:55:18;;;;;;;16.00;9.57;;;;;;;3.52;66.12;99038.30;3682363;79;21394;-77
2020/12/01 13:00:20;;;;;;;18.73;9.40;;;;;;;3.45;65.76;99040.81;3646820;79;21081;-78
2020/12/01 13:05:23;;;;;;;19.63;10.00;;;;;;;3.36;65.72;99037.20;3669443;80;21023;-78
2020/12/01 13:10:27;;;;;;;19.80;10.07;;;;;;;3.31;65.97;99044.23;3637994;80;21052;-78
2020/12/01 13:15:29;;;;;;;20.00;10.40;;;;;;;3.24;66.01;99042.51;3691225;79;20953;-78
2020/12/01 13:20:33;;;;;;;18.83;9.47;;;;;;;3.19;66.06;99040.28;3682308;78;21044;-77
2020/12/01 13:25:35;;;;;;;18.10;9.53;;;;;;;3.13;65.94;99044.66;3684341;80;21496;-77
2020/12/01 13:30:37;;;;;;;19.30;10.33;;;;;;;3.04;65.93;99052.69;3665525;80;21063;-77
2020/12/01 13:35:40;;;;;;;23.13;11.37;;;;;;;2.96;65.72;99045.09;3709987;78;20981;-78
2020/12/01 13:40:44;;;;;;;20.53;11.07;;;;;;;2.89;66.14;99059.23;3692575;80;21039;-77
2020/12/01 13:45:46;;;;;;;20.73;11.03;;;;;;;2.82;66.10;99059.88;3658462;78;21080;-77
2020/12/01 13:50:50;;;;;;;20.70;11.03;;;;;;;2.67;66.15;99057.70;3667606;79;21034;-78
2020/12/01 13:55:52;;;;;;;21.20;11.47;;;;;;;2.67;66.15;99057.70;3681435;79;21021;-77
2020/12/01 14:00:54;;;;;;;21.43;11.03;;;;;;;2.54;66.39;99057.38;3671665;79;21461;-76
2020/12/01 14:05:57;;;;;;;24.17;13.13;;;;;;;2.19;66.58;99058.13;3712243;79;21039;-76
2020/12/01 14:10:59;;;;;;;44.63;18.77;;;;;;;2.19;66.58;99058.13;3638753;79;21032;-75
2020/12/01 14:16:01;;;;;;;38.87;19.23;;;;;;;2.18;67.07;99071.58;3646690;80;21076;-76
2020/12/01 14:21:05;;;;;;;36.27;16.80;;;;;;;2.08;67.39;99080.58;3581014;82;21001;-75
2020/12/01 14:26:07;;;;;;;33.10;16.40;;;;;;;1.95;67.51;99082.37;3636659;80;21004;-74
2020/12/01 14:31:10;;;;;;;37.37;16.63;;;;;;;1.88;67.93;99088.26;3581460;82;21476;-77
2020/12/01 14:36:15;;;;;;;39.67;17.13;;;;;;;1.75;67.94;99086.59;3654763;80;21386;-80
2020/12/01 14:41:19;;;;;;;34.23;15.97;;;;;;;1.64;68.11;99092.11;3590328;82;21049;-76
2020/12/01 14:46:52;;;;;;;38.23;17.87;;;;;;;1.51;68.39;99101.00;3614950;80;21048;-74
2020/12/01 14:52:22;;;;;;;34.40;16.97;;;;;;;1.44;68.57;99098.12;3893866;74;23836;-74
2020/12/01 14:57:39;;;;;;;39.47;18.13;;;;;;;1.27;68.79;99101.87;3833978;77;21003;-75
2020/12/01 15:03:23;;;;;;;53.63;23.40;;;;;;;1.10;68.86;99099.79;3832427;75;21038;-73
2020/12/01 15:08:39;;;;;;;70.30;28.50;;;;;;;0.95;68.85;99112.03;3631601;81;21028;-74
2020/12/01 15:13:45;;;;;;;68.90;28.17;;;;;;;0.80;69.15;99113.67;3705959;80;21342;-73
2020/12/01 15:18:51;;;;;;;56.20;24.23;;;;;;;0.68;69.35;99117.50;3714393;79;21373;-74
2020/12/01 15:23:59;;;;;;;59.43;24.73;;;;;;;0.58;69.37;99121.14;3714988;80;21008;-73
2020/12/01 15:29:02;;;;;;;62.67;26.30;;;;;;;0.48;69.60;99129.52;3714180;79;21000;-72
2020/12/01 15:34:06;;;;;;;68.20;27.63;;;;;;;0.42;69.74;99140.10;3715175;80;21012;-72
2020/12/01 15:39:11;;;;;;;59.87;27.03;;;;;;;0.37;69.85;99143.38;3715011;79;20969;-74
2020/12/01 15:44:18;;;;;;;59.40;26.73;;;;;;;0.31;70.01;99148.20;3687436;80;20984;-74
2020/12/01 15:49:20;;;;;;;64.63;27.63;;;;;;;0.27;70.30;99153.07;3619469;81;21419;-75
2020/12/01 15:55:01;;;;;;;69.57;29.33;;;;;;;0.24;70.39;99158.77;3638731;81;21043;-74
2020/12/01 16:00:29;;;;;;;68.97;28.43;;;;;;;0.20;70.43;99160.70;3648445;80;21148;-74
2020/12/01 16:05:50;;;;;;;67.10;29.70;;;;;;;0.14;70.65;99175.52;3702174;80;21023;-74
2020/12/01 16:11:23;;;;;;;80.35;32.15;;;;;;;0.09;70.81;99169.58;3702236;80;21051;-74
2020/12/01 16:16:34;;;;;;;72.30;31.27;;;;;;;0.05;70.87;99176.80;3700925;80;21004;-74
2020/12/01 16:21:43;;;;;;;88.77;33.40;;;;;;;-0.03;70.91;99176.52;3702084;80;21028;-74
2020/12/01 16:27:16;;;;;;;83.50;34.10;;;;;;;-0.15;70.82;99174.23;3702268;80;20984;-74
2020/12/01 16:32:24;;;;;;;79.83;32.07;;;;;;;-0.23;71.08;99172.65;3702272;80;21471;-73
2020/12/01 16:37:48;;;;;;;79.63;31.13;;;;;;;-0.31;71.26;99177.63;3702301;80;21471;-73
2020/12/01 16:43:11;;;;;;;79.57;32.10;;;;;;;-0.38;71.42;99174.20;3702208;80;21001;-73
2020/12/01 16:48:24;;;;;;;79.97;31.93;;;;;;;-0.45;71.46;99176.05;3697591;80;21009;-73
2020/12/01 16:53:48;;;;;;;80.30;32.33;;;;;;;-0.51;71.75;99173.73;3666149;80;21477;-74
2020/12/01 16:59:01;;;;;;;80.23;33.07;;;;;;;-0.53;71.94;99177.09;3666069;80;20986;-74
2020/12/01 17:04:41;;;;;;;79.13;32.03;;;;;;;-0.60;71.90;99187.63;3664530;80;20967;-74
2020/12/01 17:09:55;;;;;;;82.47;34.23;;;;;;;-0.62;72.02;99184.38;3663475;81;20991;-73
2020/12/01 17:15:42;;;;;;;71.80;29.43;;;;;;;-0.66;72.03;99188.43;3664364;81;20975;-74
2020/12/01 17:20:44;;;;;;;63.33;27.90;;;;;;;-0.73;72.11;99191.09;3663639;81;21015;-73
2020/12/01 17:25:47;;;;;;;61.93;27.20;;;;;;;-0.80;72.09;99187.63;3664546;81;21491;-73
2020/12/01 17:31:26;;;;;;;65.03;27.07;;;;;;;-0.85;72.22;99188.77;3664355;81;21008;-73
2020/12/01 17:36:41;;;;;;;65.12;27.45;;;;;;;-0.87;72.37;99188.97;3603054;82;21067;-72
2020/12/01 17:42:09;;;;;;;61.77;27.83;;;;;;;-0.90;72.44;99192.50;3602846;82;21447;-72
2020/12/01 17:47:23;;;;;;;54.47;25.63;;;;;;;-0.91;72.56;99194.83;3602646;81;21422;-73
2020/12/01 17:52:38;;;;;;;64.67;26.93;;;;;;;-0.94;72.48;99201.81;3607947;81;21030;-73
2020/12/01 17:57:40;;;;;;;58.63;25.93;;;;;;;-0.96;72.52;99205.96;3609063;82;21431;-73
2020/12/01 18:02:47;;;;;;;67.77;30.37;;;;;;;-0.99;72.59;99206.38;3566617;82;21506;-73
2020/12/01 18:08:08;;;;;;;68.93;27.40;;;;;;;-0.99;72.73;99211.62;3547431;83;21027;-74
2020/12/01 18:13:11;;;;;;;65.10;28.93;;;;;;;-0.99;72.75;99222.64;3547617;83;21011;-74
2020/12/01 18:18:29;;;;;;;60.13;26.93;;;;;;;-1.00;72.70;99223.67;3547543;83;21035;-73
2020/12/01 18:23:46;;;;;;;62.77;27.43;;;;;;;-1.08;72.49;99224.66;3547446;83;20972;-74
2020/12/01 18:28:53;;;;;;;67.90;29.10;;;;;;;-1.11;72.63;99235.07;3547213;83;21035;-72
2020/12/01 18:34:19;;;;;;;100.93;40.47;;;;;;;-1.10;72.89;99238.53;3580467;82;21023;-74
2020/12/01 18:39:21;;;;;;;98.53;39.60;;;;;;;-1.08;73.32;99247.02;3606771;81;21054;-73
2020/12/01 18:44:29;;;;;;;106.23;42.40;;;;;;;-1.12;73.54;99246.63;3621202;81;21447;-74
2020/12/01 18:49:31;;;;;;;105.70;42.23;;;;;;;-1.15;73.64;99248.83;3631743;79;21060;-73
2020/12/01 18:54:32;;;;;;;114.07;46.53;;;;;;;-1.18;73.76;99258.44;3718831;79;21020;-74
2020/12/01 18:59:35;;;;;;;160.63;58.43;;;;;;;-1.22;73.86;99258.02;3714567;79;21420;-74
2020/12/01 19:04:37;;;;;;;161.13;59.23;;;;;;;-1.31;73.96;99263.17;3584179;82;21032;-73
2020/12/01 19:09:39;;;;;;;151.27;57.47;;;;;;;-1.44;74.13;99258.17;3571508;82;21012;-73
2020/12/01 19:14:41;;;;;;;167.37;62.93;;;;;;;-1.51;74.34;99269.17;3584281;82;21044;-74
2020/12/01 19:19:44;;;;;;;193.20;72.43;;;;;;;-1.58;74.36;99271.77;3584357;82;20997;-75
2020/12/01 19:24:46;;;;;;;213.80;85.00;;;;;;;-1.64;74.50;99275.17;3584278;82;20984;-75
2020/12/01 19:29:48;;;;;;;209.27;82.77;;;;;;;-1.72;74.67;99281.94;3584255;82;21000;-73
2020/12/01 19:34:51;;;;;;;231.57;89.00;;;;;;;-1.78;74.93;99292.69;3629524;81;21417;-73
2020/12/01 19:39:53;;;;;;;211.07;82.93;;;;;;;-1.80;75.13;99288.66;3647080;81;21519;-72
2020/12/01 19:44:56;;;;;;;202.03;81.37;;;;;;;-1.87;75.16;99291.73;3647051;81;21048;-73
2020/12/01 19:49:57;;;;;;;184.70;72.70;;;;;;;-1.98;75.08;99307.55;3647816;81;21422;-74
2020/12/01 19:54:59;;;;;;;176.63;70.57;;;;;;;-2.11;75.01;99307.78;3649894;81;21025;-74
2020/12/01 20:00:07;;;;;;;192.03;75.47;;;;;;;-2.18;75.31;99313.48;3648962;81;21005;-74
2020/12/01 20:05:13;;;;;;;187.53;73.95;;;;;;;-2.19;75.70;99307.13;3646209;81;21020;-73
2020/12/01 20:10:17;;;;;;;207.20;84.47;;;;;;;-2.17;75.88;99317.74;3664494;81;21399;-73
2020/12/01 20:15:19;;;;;;;246.73;97.23;;;;;;;-2.19;75.96;99316.30;3664478;81;21023;-74
2020/12/01 20:20:22;;;;;;;267.90;101.93;;;;;;;-2.13;76.26;99320.78;3664420;81;20991;-73
2020/12/01 20:25:30;;;;;;;278.90;106.93;;;;;;;-2.13;76.07;99322.89;3664479;81;21001;-73
2020/12/01 20:30:30;;;;;;;289.70;112.47;;;;;;;-2.12;76.26;99330.28;3663984;81;21432;-73
2020/12/01 20:35:43;;;;;;;298.50;111.93;;;;;;;-2.09;76.41;99327.27;3666073;81;21491;-73
2020/12/01 20:40:47;;;;;;;274.03;102.63;;;;;;;-2.07;76.22;99325.25;3666103;81;21063;-73
2020/12/01 20:45:49;;;;;;;292.73;108.17;;;;;;;-2.07;76.22;99331.81;3666349;81;21000;-73
2020/12/01 20:50:51;;;;;;;284.17;107.93;;;;;;;-2.06;76.36;99336.07;3686446;78;21000;-73
2020/12/01 20:55:54;;;;;;;273.10;104.77;;;;;;;-2.05;76.33;99335.08;3717744;79;21043;-73
2020/12/01 21:00:57;;;;;;;272.27;103.37;;;;;;;-2.04;76.39;99341.95;3715245;78;21039;-73
2020/12/01 21:05:59;;;;;;;267.23;101.53;;;;;;;-2.05;76.33;99340.84;3710709;80;21047;-73
2020/12/01 21:11:07;;;;;;;249.00;96.00;;;;;;;-2.09;76.24;99339.88;3710810;80;21000;-74
2020/12/01 21:16:15;;;;;;;256.80;95.67;;;;;;;-2.11;76.28;99349.78;3710361;80;21048;-74
2020/12/01 21:21:19;;;;;;;239.90;96.40;;;;;;;-2.16;76.37;99349.53;3653351;81;20944;-73
2020/12/01 21:26:30;;;;;;;228.10;86.03;;;;;;;-2.19;76.40;99350.43;3653854;81;21083;-73
2020/12/01 21:31:55;;;;;;;211.77;81.60;;;;;;;-2.24;76.36;99353.61;3711136;79;21028;-74
2020/12/01 21:36:57;;;;;;;190.60;74.03;;;;;;;-2.34;76.20;99356.56;3717694;79;20941;-74
2020/12/01 21:42:14;;;;;;;169.17;66.23;;;;;;;-2.39;76.52;99358.13;3717651;79;21061;-73
2020/12/01 21:47:21;;;;;;;193.80;75.70;;;;;;;-2.45;76.42;99349.20;3652489;79;20989;-73
2020/12/01 21:53:17;;;;;;;171.00;64.53;;;;;;;-2.50;76.40;99360.78;3620789;81;21043;-72
2020/12/01 21:58:46;;;;;;;218.37;82.83;;;;;;;-2.57;76.44;99352.85;3602716;82;20944;-73
2020/12/01 22:04:16;;;;;;;201.23;81.87;;;;;;;-2.70;76.31;99357.48;3641083;81;21067;-73
2020/12/01 22:09:50;;;;;;;210.97;83.37;;;;;;;-2.78;76.53;99373.34;3666058;81;21055;-73
2020/12/01 22:15:10;;;;;;;206.70;81.53;;;;;;;-2.86;76.58;99370.31;3666002;81;21035;-73
2020/12/01 22:20:20;;;;;;;189.63;76.97;;;;;;;-2.89;76.99;99365.45;3666015;80;21055;-73
2020/12/01 22:26:03;;;;;;;205.73;81.97;;;;;;;-2.88;76.96;99371.50;3666149;80;21518;-72
2020/12/01 22:31:21;;;;;;;211.87;81.33;;;;;;;-2.94;77.11;99380.44;3666019;81;20964;-71
2020/12/01 22:36:34;;;;;;;223.20;84.90;;;;;;;-3.02;76.98;99374.00;3603310;82;21034;-72
2020/12/01 22:42:03;;;;;;;244.60;89.33;;;;;;;-3.05;77.17;99368.30;3602665;82;21000;-73
2020/12/01 22:47:46;;;;;;;261.70;93.57;;;;;;;-3.10;77.09;99378.03;3665985;81;20988;-72
2020/12/01 22:53:19;;;;;;;327.30;115.93;;;;;;;-3.18;76.99;99386.80;3700038;79;21424;-73
2020/12/01 22:58:26;;;;;;;384.73;130.80;;;;;;;-3.21;77.20;99382.44;3717594;79;21048;-72
2020/12/01 23:03:34;;;;;;;394.60;136.27;;;;;;;-3.19;77.56;99375.20;3711911;80;21389;-73
2020/12/01 23:09:05;;;;;;;350.83;125.30;;;;;;;-3.15;77.58;99376.45;3710805;80;21013;-73
2020/12/01 23:14:16;;;;;;;364.13;128.33;;;;;;;-3.10;77.81;99372.80;3710989;80;21448;-73
2020/12/01 23:19:19;;;;;;;370.90;130.15;;;;;;;-3.10;77.62;99364.92;3711090;80;21374;-73
2020/12/01 23:24:21;;;;;;;389.43;132.43;;;;;;;-3.15;77.47;99371.21;3683936;80;21024;-72
2020/12/01 23:29:42;;;;;;;363.90;127.80;;;;;;;-3.21;77.55;99367.52;3710916;79;21020;-72
2020/12/01 23:34:44;;;;;;;374.12;130.60;;;;;;;-3.30;77.33;99365.52;3643716;79;20964;-73
2020/12/01 23:45:01;;;;;;;370.80;134.70;;;;;;;-3.21;77.91;99374.58;3917339;75;22657;-74
2020/12/01 23:50:27;;;;;;;351.57;133.03;;;;;;;-3.24;77.90;99368.41;3788499;78;21486;-74
2020/12/01 23:55:29;;;;;;;357.97;128.13;;;;;;;-3.19;78.23;99372.09;3789246;77;21042;-73
